createdAt,value
2023-02-08T00:01:25.296Z,11.70
2023-02-08T00:03:54.332Z,11.60
2023-02-08T00:06:22.911Z,11.60
2023-02-08T00:08:51.709Z,11.60
2023-02-08T00:11:21.347Z,11.50
2023-02-08T00:13:49.759Z,11.50
2023-02-08T00:16:18.499Z,11.50
2023-02-08T00:18:47.677Z,11.50
2023-02-08T00:21:18.268Z,11.50
2023-02-08T00:23:48.294Z,11.50
2023-02-08T00:26:18.203Z,11.50
2023-02-08T00:28:47.995Z,11.40
2023-02-08T00:31:16.337Z,11.40
2023-02-08T00:33:44.725Z,11.30
2023-02-08T00:36:14.308Z,11.40
2023-02-08T00:38:42.650Z,11.40
2023-02-08T00:41:11.613Z,11.30
2023-02-08T00:43:39.990Z,11.30
2023-02-08T00:46:09.738Z,11.30
2023-02-08T00:48:38.250Z,11.30
2023-02-08T00:51:08.847Z,11.30
2023-02-08T00:53:38.432Z,11.30
2023-02-08T00:56:07.971Z,11.30
2023-02-08T00:58:36.901Z,11.20
2023-02-08T01:01:06.332Z,11.20
2023-02-08T01:03:38.381Z,11.10
2023-02-08T01:06:10.309Z,11.10
2023-02-08T01:08:39.074Z,11.10
2023-02-08T01:11:09.480Z,11.10
2023-02-08T01:13:39.060Z,11.10
2023-02-08T01:16:09.275Z,11.00
2023-02-08T01:18:39.765Z,11.00
2023-02-08T01:21:10.614Z,11.00
2023-02-08T01:23:39.257Z,11.00
2023-02-08T01:26:08.060Z,11.00
2023-02-08T01:28:36.910Z,10.90
2023-02-08T01:31:07.243Z,10.90
2023-02-08T01:33:35.577Z,10.80
2023-02-08T01:36:08.035Z,10.80
2023-02-08T01:38:37.002Z,10.80
2023-02-08T01:41:06.445Z,10.80
2023-02-08T01:43:36.656Z,10.70
2023-02-08T01:46:05.229Z,10.60
2023-02-08T01:48:36.298Z,10.70
2023-02-08T01:51:10.816Z,10.60
2023-02-08T01:53:40.424Z,10.50
2023-02-08T01:56:18.657Z,10.50
2023-02-08T01:58:52.356Z,10.50
2023-02-08T02:01:20.712Z,10.50
2023-02-08T02:03:49.153Z,10.50
2023-02-08T02:06:26.043Z,10.40
2023-02-08T02:09:13.491Z,10.40
2023-02-08T02:11:42.095Z,10.40
2023-02-08T02:14:11.265Z,10.30
2023-02-08T02:16:39.631Z,10.40
2023-02-08T02:19:15.272Z,10.40
2023-02-08T02:21:58.897Z,10.30
2023-02-08T02:24:57.390Z,10.30
2023-02-08T02:27:40.712Z,10.30
2023-02-08T02:30:52.871Z,10.30
2023-02-08T02:33:44.345Z,10.30
2023-02-08T02:36:21.612Z,10.20
2023-02-08T02:39:04.013Z,10.30
2023-02-08T02:42:03.149Z,10.20
2023-02-08T02:44:38.737Z,10.20
2023-02-08T02:47:14.116Z,10.20
2023-02-08T02:49:52.083Z,10.20
2023-02-08T02:52:27.819Z,10.20
2023-02-08T02:54:59.528Z,10.20
2023-02-08T02:57:32.462Z,10.20
2023-02-08T03:00:02.092Z,10.20
2023-02-08T03:02:30.637Z,10.20
2023-02-08T03:05:00.418Z,10.20
2023-02-08T03:08:02.672Z,10.20
2023-02-08T03:10:43.158Z,10.10
2023-02-08T03:13:19.976Z,10.10
2023-02-08T03:15:58.520Z,10.10
2023-02-08T03:18:36.415Z,10.00
2023-02-08T03:21:13.480Z,10.00
2023-02-08T03:23:51.040Z,10.00
2023-02-08T03:26:24.323Z,10.00
2023-02-08T03:28:59.540Z,10.00
2023-02-08T03:31:33.913Z,10.00
2023-02-08T03:34:08.155Z,10.00
2023-02-08T03:36:43.611Z,10.00
2023-02-08T03:39:15.068Z,10.00
2023-02-08T03:41:47.672Z,10.00
2023-02-08T03:44:22.014Z,10.00
2023-02-08T03:46:54.184Z,9.90
2023-02-08T03:49:26.209Z,9.90
2023-02-08T03:52:00.630Z,9.90
2023-02-08T03:54:33.488Z,9.80
2023-02-08T03:57:07.962Z,9.80
2023-02-08T03:59:39.668Z,9.80
2023-02-08T04:02:12.115Z,9.70
2023-02-08T04:04:43.910Z,9.70
2023-02-08T04:07:13.887Z,9.70
2023-02-08T04:09:42.193Z,9.70
2023-02-08T04:12:10.824Z,9.70
2023-02-08T04:14:39.225Z,9.70
2023-02-08T04:17:07.495Z,9.70
2023-02-08T04:19:35.852Z,9.70
2023-02-08T04:22:04.236Z,9.70
2023-02-08T04:24:34.043Z,9.60
2023-02-08T04:27:04.433Z,9.70
2023-02-08T04:29:34.486Z,9.70
2023-02-08T04:32:03.809Z,9.70
2023-02-08T04:34:32.072Z,9.70
2023-02-08T04:37:00.370Z,9.60
2023-02-08T04:39:28.769Z,9.60
2023-02-08T04:41:58.578Z,9.60
2023-02-08T04:44:27.334Z,9.60
2023-02-08T04:46:55.732Z,9.60
2023-02-08T04:49:24.189Z,9.60
2023-02-08T04:51:52.596Z,9.60
2023-02-08T04:54:21.108Z,9.60
2023-02-08T04:56:49.833Z,9.60
2023-02-08T04:59:19.860Z,9.60
2023-02-08T05:01:48.550Z,9.60
2023-02-08T05:04:16.851Z,9.70
2023-02-08T05:06:48.072Z,9.70
2023-02-08T05:09:16.720Z,9.60
2023-02-08T05:11:45.029Z,9.60
2023-02-08T05:14:13.520Z,9.60
2023-02-08T05:16:43.215Z,9.60
2023-02-08T05:19:12.278Z,9.60
2023-02-08T05:21:40.754Z,9.60
2023-02-08T05:24:12.876Z,9.70
2023-02-08T05:26:41.594Z,9.70
2023-02-08T05:29:10.784Z,9.70
2023-02-08T05:31:39.155Z,9.80
2023-02-08T05:34:08.860Z,9.80
2023-02-08T05:36:37.188Z,9.70
2023-02-08T05:39:05.778Z,9.80
2023-02-08T05:41:34.117Z,9.80
2023-02-08T05:44:02.475Z,9.80
2023-02-08T05:46:30.873Z,9.80
2023-02-08T05:48:59.184Z,9.80
2023-02-08T05:51:28.897Z,9.80
2023-02-08T05:53:57.208Z,9.90
2023-02-08T05:56:25.610Z,9.90
2023-02-08T05:58:53.962Z,9.90
2023-02-08T06:01:24.553Z,9.90
2023-02-08T06:03:52.874Z,10.00
2023-02-08T06:06:21.331Z,9.90
2023-02-08T06:08:51.005Z,10.00
2023-02-08T06:11:20.205Z,10.00
2023-02-08T06:13:48.831Z,10.00
2023-02-08T06:16:19.959Z,10.00
2023-02-08T06:18:48.645Z,10.00
2023-02-08T06:21:16.848Z,10.00
2023-02-08T06:23:45.141Z,10.00
2023-02-08T06:26:14.953Z,10.00
2023-02-08T06:28:43.333Z,10.00
2023-02-08T06:31:11.777Z,10.00
2023-02-08T06:33:40.070Z,10.00
2023-02-08T06:36:09.044Z,10.00
2023-02-08T06:38:37.376Z,10.00
2023-02-08T06:41:05.847Z,10.00
2023-02-08T06:43:35.629Z,10.00
2023-02-08T06:46:05.104Z,10.00
2023-02-08T06:48:34.529Z,10.10
2023-02-08T06:51:03.059Z,10.10
2023-02-08T06:53:31.586Z,10.10
2023-02-08T06:55:59.962Z,10.10
2023-02-08T06:58:28.318Z,10.10
2023-02-08T07:00:58.054Z,10.10
2023-02-08T07:03:26.334Z,10.10
2023-02-08T07:06:04.551Z,10.20
2023-02-08T07:08:34.097Z,10.20
2023-02-08T07:11:07.196Z,10.20
2023-02-08T07:13:35.569Z,10.20
2023-02-08T07:16:05.486Z,10.20
2023-02-08T07:18:34.736Z,10.20
2023-02-08T07:21:03.129Z,10.20
2023-02-08T07:23:32.000Z,10.20
2023-02-08T07:26:01.469Z,10.30
2023-02-08T07:28:29.867Z,10.30
2023-02-08T07:30:58.951Z,10.30
2023-02-08T07:33:28.880Z,10.30
2023-02-08T07:35:57.381Z,10.30
2023-02-08T07:38:25.733Z,10.40
2023-02-08T07:40:54.070Z,10.30
2023-02-08T07:43:22.309Z,10.40
2023-02-08T07:45:50.641Z,10.40
2023-02-08T07:48:19.029Z,10.40
2023-02-08T07:50:48.788Z,10.40
2023-02-08T07:53:17.860Z,10.40
2023-02-08T07:55:48.075Z,10.40
2023-02-08T07:58:16.440Z,10.40
2023-02-08T08:00:44.804Z,10.40
2023-02-08T08:03:13.697Z,10.40
2023-02-08T08:05:43.071Z,10.40
2023-02-08T08:08:13.967Z,10.50
2023-02-08T08:10:42.718Z,10.60
2023-02-08T08:13:11.081Z,10.60
2023-02-08T08:15:39.838Z,10.70
2023-02-08T08:18:08.570Z,10.80
2023-02-08T08:20:37.265Z,10.80
2023-02-08T08:23:05.894Z,10.90
2023-02-08T08:25:35.770Z,10.90
2023-02-08T08:28:04.304Z,11.00
2023-02-08T08:30:32.711Z,11.00
2023-02-08T08:33:01.008Z,11.10
2023-02-08T08:35:29.596Z,11.10
2023-02-08T08:37:57.873Z,11.20
2023-02-08T08:40:26.172Z,11.20
2023-02-08T08:42:55.927Z,11.30
2023-02-08T08:45:24.241Z,11.30
2023-02-08T08:47:52.704Z,11.30
2023-02-08T08:50:21.612Z,11.40
2023-02-08T08:52:49.825Z,11.50
2023-02-08T08:55:18.936Z,11.50
2023-02-08T08:57:47.313Z,11.50
2023-02-08T09:00:18.116Z,11.60
2023-02-08T09:02:46.444Z,11.60
2023-02-08T09:05:14.814Z,11.70
2023-02-08T09:07:43.126Z,11.60
2023-02-08T09:10:11.437Z,11.70
2023-02-08T09:12:39.787Z,11.80
2023-02-08T09:15:08.943Z,11.80
2023-02-08T09:17:38.804Z,11.80
2023-02-08T09:20:08.540Z,11.90
2023-02-08T09:22:36.811Z,11.90
2023-02-08T09:25:07.766Z,11.90
2023-02-08T09:27:36.922Z,11.90
2023-02-08T09:30:06.092Z,12.00
2023-02-08T09:32:35.251Z,12.00
2023-02-08T09:35:05.904Z,12.10
2023-02-08T09:37:34.407Z,12.20
2023-02-08T09:40:02.727Z,12.20
2023-02-08T09:42:38.540Z,12.30
2023-02-08T09:45:36.823Z,12.40
2023-02-08T09:48:18.540Z,12.50
2023-02-08T09:50:52.632Z,12.50
2023-02-08T09:53:26.144Z,12.50
2023-02-08T09:56:01.512Z,12.60
2023-02-08T09:58:35.593Z,12.60
2023-02-08T10:01:06.067Z,12.70
2023-02-08T10:03:37.587Z,12.80
2023-02-08T10:06:09.011Z,12.80
2023-02-08T10:08:38.472Z,12.80
2023-02-08T10:11:24.417Z,12.90
2023-02-08T10:14:09.423Z,13.00
2023-02-08T10:16:51.806Z,13.00
2023-02-08T10:19:35.145Z,13.00
2023-02-08T10:22:18.140Z,13.10
2023-02-08T10:25:13.086Z,13.00
2023-02-08T10:27:50.046Z,13.10
2023-02-08T10:30:31.849Z,13.10
2023-02-08T10:33:06.259Z,13.20
2023-02-08T10:35:38.158Z,13.30
2023-02-08T10:38:34.454Z,13.20
2023-02-08T10:41:10.473Z,13.30
2023-02-08T10:43:47.257Z,13.40
2023-02-08T10:46:21.758Z,13.50
2023-02-08T10:49:03.787Z,13.50
2023-02-08T10:51:32.591Z,13.60
2023-02-08T10:54:02.386Z,13.60
2023-02-08T10:56:44.405Z,13.60
2023-02-08T10:59:20.073Z,13.70
2023-02-08T11:01:49.833Z,13.70
2023-02-08T11:04:19.242Z,13.80
2023-02-08T11:06:49.286Z,13.80
2023-02-08T11:09:30.244Z,13.90
2023-02-08T11:12:01.504Z,13.90
2023-02-08T11:14:45.342Z,13.90
2023-02-08T11:17:28.739Z,14.00
2023-02-08T11:19:57.725Z,14.00
2023-02-08T11:22:29.005Z,14.10
2023-02-08T11:25:00.890Z,14.10
2023-02-08T11:27:34.960Z,14.20
2023-02-08T11:30:23.506Z,14.20
2023-02-08T11:33:19.631Z,14.30
2023-02-08T11:36:07.274Z,14.30
2023-02-08T11:38:37.892Z,14.30
2023-02-08T11:41:16.764Z,14.30
2023-02-08T11:43:51.072Z,14.40
2023-02-08T11:46:24.628Z,14.40
2023-02-08T11:48:55.183Z,14.50
2023-02-08T11:51:29.832Z,14.50
2023-02-08T11:54:00.522Z,14.60
2023-02-08T11:56:32.392Z,14.60
2023-02-08T11:59:07.758Z,14.60
2023-02-08T12:01:37.703Z,14.70
2023-02-08T12:04:08.750Z,14.80
2023-02-08T12:07:17.464Z,14.80
2023-02-08T12:10:18.154Z,14.80
2023-02-08T12:13:03.371Z,14.90
2023-02-08T12:15:57.506Z,14.90
2023-02-08T12:18:52.667Z,15.00
2023-02-08T12:21:23.988Z,15.00
2023-02-08T12:23:55.853Z,15.10
2023-02-08T12:26:55.876Z,15.10
2023-02-08T12:29:46.906Z,15.20
2023-02-08T12:32:31.210Z,15.20
2023-02-08T12:35:33.210Z,15.20
2023-02-08T12:38:32.742Z,15.20
2023-02-08T12:41:09.932Z,15.20
2023-02-08T12:43:48.460Z,15.20
2023-02-08T12:46:23.874Z,15.20
2023-02-08T12:49:12.103Z,15.20
2023-02-08T12:51:51.546Z,15.30
2023-02-08T12:54:30.733Z,15.30
2023-02-08T12:57:02.615Z,15.40
2023-02-08T12:59:36.627Z,15.40
2023-02-08T13:02:16.379Z,15.30
2023-02-08T13:04:47.952Z,15.40
2023-02-08T13:07:20.982Z,15.40
2023-02-08T13:09:58.278Z,15.40
2023-02-08T13:12:30.704Z,15.40
2023-02-08T13:15:06.018Z,15.50
2023-02-08T13:17:44.801Z,15.50
2023-02-08T13:20:30.962Z,15.50
2023-02-08T13:23:04.526Z,15.60
2023-02-08T13:25:36.058Z,15.60
2023-02-08T13:28:06.763Z,15.60
2023-02-08T13:30:39.942Z,15.60
2023-02-08T13:33:17.680Z,15.50
2023-02-08T13:35:51.582Z,15.60
2023-02-08T13:38:27.126Z,15.60
2023-02-08T13:41:17.747Z,15.60
2023-02-08T13:43:52.533Z,15.60
2023-02-08T13:46:23.026Z,15.60
2023-02-08T13:48:57.888Z,15.60
2023-02-08T13:51:54.843Z,15.60
2023-02-08T13:54:23.409Z,15.60
2023-02-08T13:56:53.395Z,15.60
2023-02-08T13:59:37.920Z,15.70
2023-02-08T14:02:30.673Z,15.70
2023-02-08T14:05:43.077Z,15.70
2023-02-08T14:08:22.303Z,15.70
2023-02-08T14:11:03.990Z,15.70
2023-02-08T14:13:36.839Z,15.70
2023-02-08T14:16:28.536Z,15.70
2023-02-08T14:18:59.597Z,15.70
2023-02-08T14:21:46.444Z,15.60
2023-02-08T14:24:23.597Z,15.60
2023-02-08T14:26:52.925Z,15.60
2023-02-08T14:29:27.235Z,15.60
2023-02-08T14:31:55.903Z,15.60
2023-02-08T14:34:34.436Z,15.60
2023-02-08T14:37:07.751Z,15.50
2023-02-08T14:39:37.482Z,15.40
2023-02-08T14:42:08.958Z,15.40
2023-02-08T14:44:49.064Z,15.40
2023-02-08T14:47:53.519Z,15.30
2023-02-08T14:50:28.112Z,15.30
2023-02-08T14:53:06.567Z,15.30
2023-02-08T14:55:42.319Z,15.30
2023-02-08T14:58:15.499Z,15.30
2023-02-08T15:00:45.714Z,15.30
2023-02-08T15:03:18.162Z,15.30
2023-02-08T15:06:04.606Z,15.20
2023-02-08T15:08:34.429Z,15.10
2023-02-08T15:11:03.256Z,15.10
2023-02-08T15:13:32.535Z,15.10
2023-02-08T15:16:01.679Z,15.10
2023-02-08T15:18:32.035Z,15.10
2023-02-08T15:21:04.152Z,15.10
2023-02-08T15:23:34.442Z,15.00
2023-02-08T15:26:04.956Z,15.00
2023-02-08T15:28:36.680Z,15.00
2023-02-08T15:31:07.525Z,15.00
2023-02-08T15:33:39.374Z,14.90
2023-02-08T15:36:09.983Z,14.90
2023-02-08T15:38:40.586Z,14.90
2023-02-08T15:41:11.391Z,14.90
2023-02-08T15:43:41.809Z,14.80
2023-02-08T15:46:20.008Z,14.80
2023-02-08T15:48:49.897Z,14.70
2023-02-08T15:51:20.274Z,14.60
2023-02-08T15:53:53.658Z,14.60
2023-02-08T15:56:36.770Z,14.50
2023-02-08T15:59:08.082Z,14.50
2023-02-08T16:01:36.803Z,14.40
2023-02-08T16:04:12.406Z,14.40
2023-02-08T16:06:46.564Z,14.30
2023-02-08T16:09:20.154Z,14.30
2023-02-08T16:11:50.563Z,14.20
2023-02-08T16:14:24.794Z,14.20
2023-02-08T16:16:57.830Z,14.20
2023-02-08T16:19:28.572Z,14.10
2023-02-08T16:21:58.916Z,14.10
2023-02-08T16:24:29.543Z,14.00
2023-02-08T16:27:02.171Z,14.00
2023-02-08T16:29:32.965Z,14.00
2023-02-08T16:32:04.303Z,13.90
2023-02-08T16:34:35.085Z,13.90
2023-02-08T16:37:05.336Z,13.80
2023-02-08T16:39:42.467Z,13.80
2023-02-08T16:42:28.442Z,13.70
2023-02-08T16:45:26.965Z,13.70
2023-02-08T16:48:00.200Z,13.60
2023-02-08T16:50:35.261Z,13.60
2023-02-08T16:53:05.253Z,13.60
2023-02-08T16:55:38.279Z,13.60
2023-02-08T16:58:10.925Z,13.50
2023-02-08T17:00:39.365Z,13.50
2023-02-08T17:03:08.068Z,13.50
2023-02-08T17:05:39.367Z,13.40
2023-02-08T17:08:17.866Z,13.40
2023-02-08T17:10:52.052Z,13.40
2023-02-08T17:13:21.525Z,13.30
2023-02-08T17:15:51.631Z,13.30
2023-02-08T17:18:20.115Z,13.40
2023-02-08T17:20:49.013Z,13.30
2023-02-08T17:23:17.538Z,13.30
2023-02-08T17:25:47.756Z,13.30
2023-02-08T17:28:18.486Z,13.30
2023-02-08T17:30:48.093Z,13.20
2023-02-08T17:33:19.005Z,13.20
2023-02-08T17:35:50.893Z,13.20
2023-02-08T17:38:20.278Z,13.20
2023-02-08T17:40:50.231Z,13.20
2023-02-08T17:43:19.097Z,13.20
2023-02-08T17:45:47.694Z,13.10
2023-02-08T17:48:16.455Z,13.10
2023-02-08T17:50:48.017Z,13.10
2023-02-08T17:53:16.413Z,13.10
2023-02-08T17:55:45.488Z,13.10
2023-02-08T17:58:15.603Z,13.00
2023-02-08T18:00:44.151Z,13.00
2023-02-08T18:03:12.630Z,13.00
2023-02-08T18:05:41.247Z,13.00
2023-02-08T18:08:09.631Z,12.90
2023-02-08T18:10:38.063Z,12.90
2023-02-08T18:13:06.448Z,12.90
2023-02-08T18:15:36.273Z,12.90
2023-02-08T18:18:04.869Z,12.90
2023-02-08T18:20:33.184Z,12.90
2023-02-08T18:23:01.567Z,12.90
2023-02-08T18:25:30.051Z,12.90
2023-02-08T18:27:58.393Z,12.80
2023-02-08T18:30:28.086Z,12.90
2023-02-08T18:32:57.877Z,12.80
2023-02-08T18:35:26.185Z,12.80
2023-02-08T18:37:54.449Z,12.80
2023-02-08T18:40:23.126Z,12.80
2023-02-08T18:42:51.698Z,12.80
2023-02-08T18:45:21.417Z,12.80
2023-02-08T18:47:49.750Z,12.80
2023-02-08T18:50:20.297Z,12.80
2023-02-08T18:52:48.559Z,12.70
2023-02-08T18:55:17.768Z,12.70
2023-02-08T18:57:48.171Z,12.70
2023-02-08T19:00:18.024Z,12.70
2023-02-08T19:02:46.699Z,12.70
2023-02-08T19:05:15.030Z,12.70
2023-02-08T19:07:44.894Z,12.70
2023-02-08T19:10:13.253Z,12.60
2023-02-08T19:12:41.766Z,12.70
2023-02-08T19:15:10.757Z,12.60
2023-02-08T19:17:39.165Z,12.60
2023-02-08T19:20:08.853Z,12.70
2023-02-08T19:22:37.104Z,12.70
2023-02-08T19:25:08.641Z,12.60
2023-02-08T19:27:37.355Z,12.60
2023-02-08T19:30:09.207Z,12.60
2023-02-08T19:32:38.009Z,12.60
2023-02-08T19:35:07.914Z,12.60
2023-02-08T19:37:37.487Z,12.60
2023-02-08T19:40:11.565Z,12.60
2023-02-08T19:42:39.903Z,12.50
2023-02-08T19:45:09.557Z,12.50
2023-02-08T19:47:50.715Z,12.40
2023-02-08T19:50:20.960Z,12.40
2023-02-08T19:52:49.290Z,12.40
2023-02-08T19:55:20.028Z,12.30
2023-02-08T19:57:48.447Z,12.40
2023-02-08T20:00:23.817Z,12.40
2023-02-08T20:02:52.709Z,12.40
2023-02-08T20:05:21.376Z,12.40
2023-02-08T20:07:49.820Z,12.30
2023-02-08T20:10:20.375Z,12.30
2023-02-08T20:12:49.302Z,12.30
2023-02-08T20:15:17.941Z,12.30
2023-02-08T20:17:46.272Z,12.30
2023-02-08T20:20:15.029Z,12.30
2023-02-08T20:22:43.297Z,12.30
2023-02-08T20:25:12.262Z,12.20
2023-02-08T20:27:42.598Z,12.20
2023-02-08T20:30:12.145Z,12.20
2023-02-08T20:32:41.084Z,12.20
2023-02-08T20:35:10.236Z,12.10
2023-02-08T20:37:39.248Z,12.10
2023-02-08T20:40:10.548Z,12.10
2023-02-08T20:42:39.085Z,12.00
2023-02-08T20:45:11.425Z,12.00
2023-02-08T20:47:46.427Z,12.00
2023-02-08T20:50:19.035Z,12.10
2023-02-08T20:52:49.223Z,12.00
2023-02-08T20:55:18.578Z,12.10
2023-02-08T20:57:46.995Z,12.00
2023-02-08T21:00:17.754Z,12.00
2023-02-08T21:02:46.522Z,12.00
2023-02-08T21:05:15.329Z,12.00
2023-02-08T21:07:43.813Z,12.00
2023-02-08T21:10:14.759Z,12.00
2023-02-08T21:12:43.399Z,12.00
2023-02-08T21:15:12.117Z,12.10
2023-02-08T21:17:42.623Z,12.10
2023-02-08T21:20:13.073Z,12.10
2023-02-08T21:22:41.983Z,12.10
2023-02-08T21:25:11.556Z,12.10
2023-02-08T21:27:40.405Z,12.00
2023-02-08T21:30:10.202Z,12.00
2023-02-08T21:32:38.478Z,12.00
2023-02-08T21:35:09.093Z,12.00
2023-02-08T21:37:38.246Z,11.90
2023-02-08T21:40:08.285Z,11.90
2023-02-08T21:42:37.043Z,12.00
2023-02-08T21:45:09.036Z,12.00
2023-02-08T21:47:39.016Z,12.00
2023-02-08T21:50:40.948Z,12.00
2023-02-08T21:53:28.877Z,11.90
2023-02-08T21:55:57.374Z,11.80
2023-02-08T21:58:25.996Z,11.80
2023-02-08T22:00:54.389Z,11.80
2023-02-08T22:03:23.000Z,11.70
2023-02-08T22:05:52.747Z,11.70
2023-02-08T22:08:21.099Z,11.70
2023-02-08T22:10:57.804Z,11.80
2023-02-08T22:13:26.557Z,11.70
2023-02-08T22:15:54.914Z,11.70
2023-02-08T22:18:23.398Z,11.80
2023-02-08T22:20:54.878Z,11.70
2023-02-08T22:23:23.496Z,11.70
2023-02-08T22:25:51.836Z,11.70
2023-02-08T22:28:20.257Z,11.70
2023-02-08T22:30:49.597Z,11.70
2023-02-08T22:33:18.043Z,11.70
2023-02-08T22:35:46.373Z,11.60
2023-02-08T22:38:16.904Z,11.60
2023-02-08T22:40:45.992Z,11.60
2023-02-08T22:43:14.859Z,11.60
2023-02-08T22:45:43.655Z,11.50
2023-02-08T22:48:12.303Z,11.50
2023-02-08T22:50:40.797Z,11.50
2023-02-08T22:53:09.267Z,11.50
2023-02-08T22:55:39.100Z,11.50
2023-02-08T22:58:07.377Z,11.40
2023-02-08T23:00:35.719Z,11.40
2023-02-08T23:03:05.767Z,11.40
2023-02-08T23:05:34.461Z,11.40
2023-02-08T23:08:02.728Z,11.30
2023-02-08T23:10:31.394Z,11.30
2023-02-08T23:13:54.644Z,11.30
2023-02-08T23:16:24.674Z,11.30
2023-02-08T23:18:53.282Z,11.20
2023-02-08T23:21:22.523Z,11.20
2023-02-08T23:23:51.106Z,11.20
2023-02-08T23:27:14.589Z,11.20
2023-02-08T23:29:42.933Z,11.20
2023-02-08T23:32:12.778Z,11.20
2023-02-08T23:34:41.211Z,11.10
2023-02-08T23:37:09.504Z,11.20
2023-02-08T23:39:37.801Z,11.20
2023-02-08T23:42:06.365Z,11.20
2023-02-08T23:44:34.655Z,11.20
2023-02-08T23:47:03.147Z,11.10
2023-02-08T23:49:32.863Z,11.10
2023-02-08T23:52:01.196Z,11.10
2023-02-08T23:54:29.626Z,11.10
2023-02-08T23:56:58.669Z,11.10
2023-02-08T23:59:27.239Z,11.10
